CheckWX is a tool to help pilots better visualize weather data.  It is not intended as a substitute for an official pre-flight weather briefing.

11:22:42 UTC

LIRU METAR
Urbe Airport
Roma, Italy
Current

33 mins ago

LIRU 251050Z VRB03KT 280V130 CAVOK 28/05 Q1023
Observed
May-25 @ 10:50 UTC
Wind
  • Variable at 3 KTS
Visibility
10,000+ meters
Flight Rules
VFR
Cloud Levels
  • Clear skies
Temperature
28°C / 82°F
Dewpoint
C / 41°F
Humidity
23%
Altimeter
30.21" Hg
Pressure
1022.92 hPa
Previous

2 hours ago

LIRU 250950Z VRB03KT CAVOK 27/09 Q1023
Observed
May-25 @ 09:50 UTC
Wind
  • Variable at 3 KTS
Visibility
10,000+ meters
Flight Rules
VFR
Cloud Levels
  • Clear skies
Temperature
27°C / 81°F
Dewpoint
C / 48°F
Humidity
32%
Altimeter
30.21" Hg
Pressure
1022.92 hPa
Previous

3 hours ago

LIRU 250850Z VRB03KT 220V350 CAVOK 25/09 Q1024
Observed
May-25 @ 08:50 UTC
Wind
  • Variable at 3 KTS
Visibility
10,000+ meters
Flight Rules
VFR
Cloud Levels
  • Clear skies
Temperature
25°C / 77°F
Dewpoint
C / 48°F
Humidity
36%
Altimeter
30.24" Hg
Pressure
1023.92 hPa